createdAt,value
2018-09-05T00:01:53.290Z,14.30
2018-09-05T00:04:21.749Z,14.30
2018-09-05T00:06:50.270Z,14.30
2018-09-05T00:09:18.708Z,14.30
2018-09-05T00:11:47.190Z,14.30
2018-09-05T00:14:15.710Z,14.30
2018-09-05T00:16:44.181Z,14.30
2018-09-05T00:19:12.762Z,14.30
2018-09-05T00:21:41.248Z,14.20
2018-09-05T00:24:09.725Z,14.20
2018-09-05T00:26:38.336Z,14.20
2018-09-05T00:29:06.839Z,14.10
2018-09-05T00:31:35.345Z,14.00
2018-09-05T00:34:03.842Z,14.00
2018-09-05T00:36:32.329Z,14.00
2018-09-05T00:39:00.796Z,13.90
2018-09-05T00:41:29.289Z,14.00
2018-09-05T00:43:57.733Z,13.90
2018-09-05T00:46:26.239Z,13.90
2018-09-05T00:48:54.708Z,14.00
2018-09-05T00:51:23.227Z,13.90
2018-09-05T00:53:51.715Z,13.80
2018-09-05T00:56:20.182Z,13.90
2018-09-05T00:58:48.642Z,13.80
2018-09-05T01:01:17.100Z,13.80
2018-09-05T01:03:45.635Z,13.70
2018-09-05T01:06:14.074Z,13.70
2018-09-05T01:08:42.579Z,13.60
2018-09-05T01:11:11.040Z,13.70
2018-09-05T01:13:39.470Z,13.60
2018-09-05T01:16:08.075Z,13.70
2018-09-05T01:18:36.512Z,13.60
2018-09-05T01:21:05.067Z,13.60
2018-09-05T01:23:33.516Z,13.60
2018-09-05T01:26:01.988Z,13.70
2018-09-05T01:28:30.431Z,13.60
2018-09-05T01:30:58.886Z,13.50
2018-09-05T01:33:27.366Z,13.50
2018-09-05T01:36:00.048Z,13.50
2018-09-05T01:38:28.760Z,13.50
2018-09-05T01:40:57.230Z,13.50
2018-09-05T01:43:25.895Z,13.50
2018-09-05T01:45:54.366Z,13.50
2018-09-05T01:48:22.855Z,13.60
2018-09-05T01:50:51.356Z,13.50
2018-09-05T01:53:19.835Z,13.50
2018-09-05T01:55:48.334Z,13.50
2018-09-05T01:58:16.799Z,13.50
2018-09-05T02:00:45.393Z,13.50
2018-09-05T02:03:13.842Z,13.40
2018-09-05T02:05:42.303Z,13.40
2018-09-05T02:08:10.818Z,13.30
2018-09-05T02:10:39.295Z,13.20
2018-09-05T02:13:07.747Z,13.20
2018-09-05T02:15:36.307Z,13.20
2018-09-05T02:18:04.847Z,13.20
2018-09-05T02:20:33.322Z,13.20
2018-09-05T02:23:01.828Z,13.20
2018-09-05T02:25:30.266Z,13.30
2018-09-05T02:27:58.846Z,13.20
2018-09-05T02:30:27.324Z,13.20
2018-09-05T02:32:55.799Z,13.10
2018-09-05T02:35:24.246Z,13.10
2018-09-05T02:37:52.716Z,13.10
2018-09-05T02:40:21.232Z,13.10
2018-09-05T02:42:49.704Z,13.10
2018-09-05T02:45:18.179Z,13.10
2018-09-05T02:47:46.793Z,13.00
2018-09-05T02:50:15.318Z,13.00
2018-09-05T02:52:43.827Z,12.90
2018-09-05T02:55:16.515Z,13.00
2018-09-05T02:57:45.028Z,13.10
2018-09-05T03:00:13.781Z,13.00
2018-09-05T03:02:42.225Z,12.90
2018-09-05T03:05:10.703Z,12.90
2018-09-05T03:07:39.144Z,12.90
2018-09-05T03:10:07.657Z,12.90
2018-09-05T03:12:36.109Z,12.90
2018-09-05T03:15:04.627Z,13.00
2018-09-05T03:17:33.073Z,13.00
2018-09-05T03:20:01.737Z,13.00
2018-09-05T03:22:30.215Z,12.90
2018-09-05T03:24:58.716Z,12.90
2018-09-05T03:27:27.168Z,12.90
2018-09-05T03:29:55.601Z,12.90
2018-09-05T03:32:24.132Z,12.80
2018-09-05T03:34:52.534Z,12.80
2018-09-05T03:37:21.156Z,12.90
2018-09-05T03:39:49.712Z,12.80
2018-09-05T03:42:18.182Z,12.80
2018-09-05T03:44:46.649Z,12.90
2018-09-05T03:47:15.239Z,12.80
2018-09-05T03:49:43.798Z,12.80
2018-09-05T03:52:12.201Z,12.80
2018-09-05T03:54:40.667Z,12.70
2018-09-05T03:57:11.111Z,12.70
2018-09-05T03:59:39.574Z,12.70
2018-09-05T04:02:08.058Z,12.80
2018-09-05T04:04:36.542Z,12.80
2018-09-05T04:07:05.068Z,12.70
2018-09-05T04:09:33.516Z,12.70
2018-09-05T04:12:02.023Z,12.80
2018-09-05T04:14:30.465Z,12.70
2018-09-05T04:16:58.952Z,12.70
2018-09-05T04:19:27.439Z,12.70
2018-09-05T04:21:55.970Z,12.60
2018-09-05T04:24:24.397Z,12.60
2018-09-05T04:26:52.976Z,12.60
2018-09-05T04:29:21.438Z,12.60
2018-09-05T04:31:50.105Z,12.60
2018-09-05T04:34:18.561Z,12.60
2018-09-05T04:36:47.090Z,12.60
2018-09-05T04:39:15.567Z,12.50
2018-09-05T04:41:44.077Z,12.50
2018-09-05T04:44:12.525Z,12.50
2018-09-05T04:46:40.991Z,12.60
2018-09-05T04:49:09.446Z,12.60
2018-09-05T04:51:38.027Z,12.50
2018-09-05T04:54:06.813Z,12.50
2018-09-05T04:56:35.318Z,12.60
2018-09-05T04:59:03.822Z,12.60
2018-09-05T05:01:32.280Z,12.80
2018-09-05T05:04:00.783Z,12.70
2018-09-05T05:06:29.327Z,12.60
2018-09-05T05:08:57.832Z,12.70
2018-09-05T05:11:26.290Z,12.70
2018-09-05T05:13:54.925Z,12.70
2018-09-05T05:16:23.362Z,12.70
2018-09-05T05:18:51.835Z,12.80
2018-09-05T05:21:20.383Z,12.80
2018-09-05T05:23:48.855Z,12.80
2018-09-05T05:26:17.382Z,12.80
2018-09-05T05:28:45.923Z,12.90
2018-09-05T05:31:14.377Z,13.00
2018-09-05T05:33:42.860Z,13.00
2018-09-05T05:36:11.322Z,13.10
2018-09-05T05:38:39.806Z,13.10
2018-09-05T05:41:08.332Z,13.10
2018-09-05T05:43:37.104Z,13.20
2018-09-05T05:46:05.859Z,13.20
2018-09-05T05:48:34.350Z,13.30
2018-09-05T05:51:03.124Z,13.30
2018-09-05T05:53:31.653Z,13.50
2018-09-05T05:56:00.215Z,13.70
2018-09-05T05:58:28.717Z,13.80
2018-09-05T06:00:57.334Z,13.80
2018-09-05T06:03:25.692Z,13.90
2018-09-05T06:05:54.186Z,14.00
2018-09-05T06:08:22.647Z,14.00
2018-09-05T06:10:51.194Z,14.20
2018-09-05T06:13:19.683Z,14.30
2018-09-05T06:15:48.204Z,14.50
2018-09-05T06:18:16.775Z,14.70
2018-09-05T06:20:45.309Z,15.00
2018-09-05T06:23:13.770Z,15.20
2018-09-05T06:25:42.290Z,15.50
2018-09-05T06:28:10.798Z,16.00
2018-09-05T06:30:39.552Z,16.40
2018-09-05T06:33:07.930Z,16.80
2018-09-05T06:35:36.457Z,17.40
2018-09-05T06:38:05.099Z,17.60
2018-09-05T06:40:33.557Z,17.50
2018-09-05T06:43:02.042Z,17.40
2018-09-05T06:45:30.544Z,17.40
2018-09-05T06:47:59.026Z,17.20
2018-09-05T06:50:27.518Z,17.10
2018-09-05T06:52:55.987Z,17.00
2018-09-05T06:55:24.500Z,17.20
2018-09-05T06:57:53.170Z,17.30
2018-09-05T07:00:21.712Z,17.30
2018-09-05T07:02:50.261Z,17.40
2018-09-05T07:05:19.500Z,17.50
2018-09-05T07:07:48.026Z,17.30
2018-09-05T07:10:16.575Z,17.70
2018-09-05T07:12:45.119Z,17.60
2018-09-05T07:15:13.631Z,17.80
2018-09-05T07:17:42.265Z,17.90
2018-09-05T07:20:10.600Z,17.90
2018-09-05T07:22:39.083Z,18.20
2018-09-05T07:25:07.970Z,18.20
2018-09-05T07:27:36.421Z,18.30
2018-09-05T07:30:05.272Z,18.80
2018-09-05T07:32:33.921Z,19.30
2018-09-05T07:35:02.387Z,19.80
2018-09-05T07:37:30.906Z,20.10
2018-09-05T07:40:00.357Z,20.30
2018-09-05T07:42:28.854Z,20.10
2018-09-05T07:44:57.344Z,20.30
2018-09-05T07:47:25.999Z,20.70
2018-09-05T07:49:54.456Z,20.80
2018-09-05T07:52:22.913Z,21.30
2018-09-05T07:54:51.436Z,22.20
2018-09-05T07:57:19.972Z,23.00
2018-09-05T07:59:48.411Z,24.00
2018-09-05T08:02:16.974Z,25.40
2018-09-05T08:04:45.511Z,27.30
2018-09-05T08:07:14.383Z,27.80
2018-09-05T08:09:42.816Z,28.10
2018-09-05T08:12:11.293Z,28.70
2018-09-05T08:14:39.797Z,28.90
2018-09-05T08:17:08.268Z,30.00
2018-09-05T08:19:36.889Z,29.60
2018-09-05T08:22:05.535Z,30.10
2018-09-05T08:24:33.991Z,30.90
2018-09-05T08:27:02.522Z,31.30
2018-09-05T08:29:31.021Z,31.30
2018-09-05T08:31:59.502Z,30.90
2018-09-05T08:34:28.074Z,31.20
2018-09-05T08:36:56.806Z,31.10
2018-09-05T08:39:25.125Z,32.30
2018-09-05T08:41:53.717Z,32.10
2018-09-05T08:44:22.358Z,30.60
2018-09-05T08:46:50.792Z,31.10
2018-09-05T08:49:19.248Z,31.60
2018-09-05T08:51:47.801Z,32.70
2018-09-05T08:54:16.288Z,31.40
2018-09-05T08:56:44.842Z,31.30
2018-09-05T08:59:13.316Z,31.30
2018-09-05T09:01:41.782Z,30.50
2018-09-05T09:04:10.365Z,30.50
2018-09-05T09:06:38.823Z,30.70
2018-09-05T09:09:09.010Z,31.20
2018-09-05T09:11:37.830Z,31.30
2018-09-05T09:14:06.816Z,30.00
2018-09-05T09:16:35.360Z,30.80
2018-09-05T09:19:03.878Z,30.30
2018-09-05T09:21:32.534Z,30.50
2018-09-05T09:24:01.513Z,30.50
2018-09-05T09:26:30.003Z,32.10
2018-09-05T09:28:59.216Z,31.30
2018-09-05T09:31:27.956Z,31.30
2018-09-05T09:33:56.455Z,31.00
2018-09-05T09:36:24.932Z,32.20
2018-09-05T09:38:53.426Z,33.00
2018-09-05T09:41:21.880Z,32.60
2018-09-05T09:43:50.380Z,33.40
2018-09-05T09:46:18.942Z,33.10
2018-09-05T09:48:47.412Z,33.90
2018-09-05T09:51:15.983Z,33.40
2018-09-05T09:53:44.449Z,34.20
2018-09-05T09:56:12.946Z,34.40
2018-09-05T09:58:41.506Z,35.60
2018-09-05T10:01:15.213Z,34.10
2018-09-05T10:03:49.216Z,33.00
2018-09-05T10:06:19.506Z,31.20
2018-09-05T10:08:53.309Z,32.90
2018-09-05T10:11:27.172Z,33.60
2018-09-05T10:14:00.875Z,32.90
2018-09-05T10:16:34.659Z,34.20
2018-09-05T10:19:07.833Z,34.80
2018-09-05T10:21:37.108Z,35.00
2018-09-05T10:24:05.609Z,35.60
2018-09-05T10:26:34.254Z,36.30
2018-09-05T10:29:02.729Z,36.80
2018-09-05T10:31:31.223Z,36.80
2018-09-05T10:33:59.686Z,36.70
2018-09-05T10:36:28.208Z,36.00
2018-09-05T10:38:56.748Z,35.90
2018-09-05T10:41:25.654Z,35.20
2018-09-05T10:43:54.155Z,36.30
2018-09-05T10:46:22.677Z,36.40
2018-09-05T10:48:51.226Z,36.90
2018-09-05T10:51:24.204Z,36.60
2018-09-05T10:53:52.736Z,36.90
2018-09-05T10:56:21.178Z,34.40
2018-09-05T10:58:49.669Z,33.30
2018-09-05T11:01:18.250Z,32.10
2018-09-05T11:03:46.799Z,32.60
2018-09-05T11:06:15.375Z,31.30
2018-09-05T11:08:43.969Z,30.90
2018-09-05T11:11:12.504Z,31.30
2018-09-05T11:13:41.012Z,30.90
2018-09-05T11:16:09.603Z,29.80
2018-09-05T11:18:38.063Z,29.40
2018-09-05T11:21:06.665Z,29.00
2018-09-05T11:23:35.134Z,29.10
2018-09-05T11:26:03.615Z,28.20
2018-09-05T11:28:32.374Z,28.10
2018-09-05T11:31:00.862Z,27.50
2018-09-05T11:33:29.468Z,28.20
2018-09-05T11:35:58.002Z,28.00
2018-09-05T11:38:26.496Z,28.50
2018-09-05T11:40:55.040Z,28.90
2018-09-05T11:43:23.559Z,28.20
2018-09-05T11:45:52.030Z,29.00
2018-09-05T11:48:20.516Z,29.30
2018-09-05T11:50:49.012Z,29.00
2018-09-05T11:53:17.592Z,28.30
2018-09-05T11:55:46.052Z,27.70
2018-09-05T11:58:14.661Z,26.80
2018-09-05T12:00:43.200Z,26.60
2018-09-05T12:03:11.654Z,26.40
2018-09-05T12:05:40.119Z,26.50
2018-09-05T12:08:08.597Z,27.30
2018-09-05T12:10:37.077Z,26.90
2018-09-05T12:13:05.568Z,26.70
2018-09-05T12:15:34.064Z,26.90
2018-09-05T12:18:02.547Z,26.90
2018-09-05T12:20:31.037Z,27.40
2018-09-05T12:22:59.544Z,28.20
2018-09-05T12:25:28.081Z,28.40
2018-09-05T12:27:56.532Z,28.60
2018-09-05T12:30:24.999Z,28.70
2018-09-05T12:32:53.542Z,28.70
2018-09-05T12:35:22.058Z,29.00
2018-09-05T12:37:50.718Z,29.30
2018-09-05T12:40:19.208Z,28.90
2018-09-05T12:42:47.705Z,28.20
2018-09-05T12:45:16.244Z,27.70
2018-09-05T12:47:44.767Z,27.60
2018-09-05T12:50:13.340Z,28.00
2018-09-05T12:52:41.820Z,28.50
2018-09-05T12:55:10.292Z,28.70
2018-09-05T12:57:38.957Z,29.20
2018-09-05T13:00:07.485Z,29.60
2018-09-05T13:02:35.955Z,29.00
2018-09-05T13:05:04.754Z,28.50
2018-09-05T13:07:33.213Z,28.80
2018-09-05T13:10:01.694Z,28.70
2018-09-05T13:12:30.185Z,28.20
2018-09-05T13:14:58.673Z,28.10
2018-09-05T13:17:27.102Z,28.60
2018-09-05T13:19:55.610Z,28.70
2018-09-05T13:22:24.110Z,29.00
2018-09-05T13:24:52.628Z,29.00
2018-09-05T13:27:21.220Z,28.70
2018-09-05T13:29:50.239Z,28.60
2018-09-05T13:32:18.689Z,28.60
2018-09-05T13:34:47.352Z,29.10
2018-09-05T13:37:15.986Z,28.70
2018-09-05T13:39:44.451Z,28.60
2018-09-05T13:42:12.895Z,28.00
2018-09-05T13:44:41.366Z,28.00
2018-09-05T13:47:10.240Z,28.20
2018-09-05T13:49:38.718Z,28.60
2018-09-05T13:52:07.283Z,29.10
2018-09-05T13:54:43.365Z,29.20
2018-09-05T13:57:11.859Z,28.60
2018-09-05T13:59:40.423Z,28.10
2018-09-05T14:02:09.039Z,28.10
2018-09-05T14:04:37.542Z,28.80
2018-09-05T14:07:06.093Z,28.50
2018-09-05T14:09:34.570Z,28.20
2018-09-05T14:12:03.075Z,28.60
2018-09-05T14:14:31.679Z,28.40
2018-09-05T14:17:00.174Z,27.60
2018-09-05T14:19:28.765Z,27.60
2018-09-05T14:21:57.288Z,26.70
2018-09-05T14:24:25.924Z,26.90
2018-09-05T14:26:54.440Z,26.10
2018-09-05T14:29:22.945Z,26.00
2018-09-05T14:31:51.391Z,26.00
2018-09-05T14:34:23.487Z,25.90
2018-09-05T14:36:52.057Z,25.70
2018-09-05T14:39:20.528Z,26.00
2018-09-05T14:41:49.191Z,26.80
2018-09-05T14:44:17.637Z,27.10
2018-09-05T14:46:46.115Z,27.40
2018-09-05T14:49:14.588Z,27.70
2018-09-05T14:51:43.077Z,27.30
2018-09-05T14:54:11.646Z,27.20
2018-09-05T14:56:40.130Z,27.20
2018-09-05T14:59:08.563Z,26.70
2018-09-05T15:01:37.106Z,26.40
2018-09-05T15:04:05.720Z,26.70
2018-09-05T15:06:34.326Z,26.60
2018-09-05T15:09:02.820Z,26.50
2018-09-05T15:11:31.492Z,26.40
2018-09-05T15:14:00.004Z,26.60
2018-09-05T15:16:28.732Z,26.90
2018-09-05T15:18:57.227Z,26.70
2018-09-05T15:21:25.840Z,26.50
2018-09-05T15:23:54.365Z,26.30
2018-09-05T15:26:22.933Z,26.60
2018-09-05T15:28:51.449Z,26.70
2018-09-05T15:31:20.007Z,26.50
2018-09-05T15:33:48.580Z,26.20
2018-09-05T15:36:17.172Z,26.20
2018-09-05T15:38:46.045Z,26.30
2018-09-05T15:41:14.479Z,26.20
2018-09-05T15:43:43.000Z,26.00
2018-09-05T15:46:11.729Z,26.10
2018-09-05T15:48:40.232Z,26.10
2018-09-05T15:51:08.722Z,26.20
2018-09-05T15:53:37.262Z,26.20
2018-09-05T15:56:06.072Z,25.90
2018-09-05T15:58:34.556Z,25.60
2018-09-05T16:01:03.204Z,25.60
2018-09-05T16:03:31.692Z,25.40
2018-09-05T16:06:00.551Z,25.50
2018-09-05T16:08:28.999Z,25.40
2018-09-05T16:10:57.485Z,25.10
2018-09-05T16:13:25.937Z,24.80
2018-09-05T16:15:54.515Z,24.70
2018-09-05T16:18:23.015Z,24.70
2018-09-05T16:20:51.468Z,24.50
2018-09-05T16:23:19.954Z,24.50
2018-09-05T16:25:48.461Z,24.30
2018-09-05T16:28:17.178Z,24.30
2018-09-05T16:30:45.735Z,24.20
2018-09-05T16:33:14.210Z,24.00
2018-09-05T16:35:42.731Z,24.00
2018-09-05T16:38:11.500Z,23.90
2018-09-05T16:40:39.955Z,23.90
2018-09-05T16:43:08.655Z,23.80
2018-09-05T16:45:37.237Z,23.80
2018-09-05T16:48:06.375Z,23.80
2018-09-05T16:50:34.878Z,23.80
2018-09-05T16:53:03.470Z,23.80
2018-09-05T16:55:31.963Z,23.80
2018-09-05T16:58:00.560Z,23.80
2018-09-05T17:00:29.179Z,23.90
2018-09-05T17:02:57.663Z,23.90
2018-09-05T17:05:26.228Z,23.90
2018-09-05T17:07:54.826Z,23.80
2018-09-05T17:10:23.293Z,23.80
2018-09-05T17:12:51.838Z,23.80
2018-09-05T17:15:20.323Z,23.70
2018-09-05T17:17:48.828Z,23.70
2018-09-05T17:20:17.311Z,23.80
2018-09-05T17:22:45.801Z,23.70
2018-09-05T17:25:14.430Z,23.70
2018-09-05T17:27:42.984Z,23.60
2018-09-05T17:30:11.474Z,23.60
2018-09-05T17:32:40.083Z,23.50
2018-09-05T17:35:08.852Z,23.40
2018-09-05T17:37:37.370Z,23.30
2018-09-05T17:40:05.903Z,23.20
2018-09-05T17:42:34.382Z,23.10
2018-09-05T17:45:02.995Z,23.00
2018-09-05T17:47:31.540Z,22.90
2018-09-05T17:50:00.186Z,22.90
2018-09-05T17:52:28.769Z,22.70
2018-09-05T17:54:57.419Z,22.70
2018-09-05T17:57:25.938Z,22.70
2018-09-05T17:59:54.415Z,22.70
2018-09-05T18:02:22.966Z,22.60
2018-09-05T18:04:51.446Z,22.50
2018-09-05T18:07:19.951Z,22.30
2018-09-05T18:09:48.402Z,22.30
2018-09-05T18:12:17.057Z,22.10
2018-09-05T18:14:45.655Z,22.10
2018-09-05T18:17:14.265Z,22.10
2018-09-05T18:19:42.747Z,22.00
2018-09-05T18:22:11.226Z,21.90
2018-09-05T18:24:39.731Z,21.90
2018-09-05T18:27:08.411Z,21.90
2018-09-05T18:29:36.866Z,21.90
2018-09-05T18:32:05.340Z,21.90
2018-09-05T18:34:33.831Z,21.90
2018-09-05T18:37:02.499Z,21.90
2018-09-05T18:39:31.007Z,21.80
2018-09-05T18:41:59.562Z,21.70
2018-09-05T18:44:28.200Z,21.70
2018-09-05T18:46:56.707Z,21.70
2018-09-05T18:49:25.273Z,21.60
2018-09-05T18:51:53.839Z,21.50
2018-09-05T18:54:22.458Z,21.40
2018-09-05T18:56:51.577Z,21.40
2018-09-05T18:59:20.140Z,21.40
2018-09-05T19:01:48.615Z,21.30
2018-09-05T19:04:17.242Z,21.40
2018-09-05T19:06:45.721Z,21.40
2018-09-05T19:09:14.209Z,21.40
2018-09-05T19:11:42.663Z,21.40
2018-09-05T19:14:12.102Z,21.40
2018-09-05T19:16:40.629Z,21.40
2018-09-05T19:19:09.137Z,21.40
2018-09-05T19:21:37.809Z,21.50
2018-09-05T19:24:06.354Z,21.50
2018-09-05T19:26:34.945Z,21.40
2018-09-05T19:29:03.599Z,21.30
2018-09-05T19:31:32.323Z,21.30
2018-09-05T19:34:00.834Z,21.20
2018-09-05T19:36:29.408Z,21.20
2018-09-05T19:38:57.948Z,21.20
2018-09-05T19:41:26.431Z,21.20
2018-09-05T19:43:54.943Z,21.20
2018-09-05T19:46:23.583Z,21.00
2018-09-05T19:48:52.212Z,21.00
2018-09-05T19:51:20.765Z,20.80
2018-09-05T19:53:49.266Z,20.70
2018-09-05T19:56:17.759Z,20.50
2018-09-05T19:58:46.213Z,20.30
2018-09-05T20:01:14.720Z,20.20
2018-09-05T20:03:43.212Z,20.10
2018-09-05T20:06:11.921Z,20.00
2018-09-05T20:08:40.606Z,19.90
2018-09-05T20:11:09.324Z,19.70
2018-09-05T20:13:37.877Z,19.70
2018-09-05T20:16:12.958Z,19.60
2018-09-05T20:18:42.044Z,19.40
2018-09-05T20:21:10.509Z,19.40
2018-09-05T20:23:39.012Z,19.40
2018-09-05T20:26:07.495Z,19.20
2018-09-05T20:28:36.033Z,19.30
2018-09-05T20:31:04.659Z,19.30
2018-09-05T20:33:33.299Z,19.30
2018-09-05T20:36:01.780Z,19.20
2018-09-05T20:38:30.261Z,19.30
2018-09-05T20:40:58.758Z,19.30
2018-09-05T20:43:27.283Z,19.40
2018-09-05T20:45:55.764Z,19.30
2018-09-05T20:48:24.231Z,19.20
2018-09-05T20:50:52.872Z,19.10
2018-09-05T20:53:21.368Z,19.00
2018-09-05T20:55:49.822Z,19.10
2018-09-05T20:58:18.558Z,19.00
2018-09-05T21:00:47.183Z,18.80
2018-09-05T21:03:15.760Z,18.70
2018-09-05T21:05:44.349Z,18.60
2018-09-05T21:08:12.793Z,18.50
2018-09-05T21:10:41.411Z,18.40
2018-09-05T21:13:09.978Z,18.30
2018-09-05T21:15:38.560Z,18.20
2018-09-05T21:18:07.149Z,18.20
2018-09-05T21:20:35.698Z,18.10
2018-09-05T21:23:04.200Z,18.00
2018-09-05T21:25:32.694Z,18.30
2018-09-05T21:28:01.187Z,18.20
2018-09-05T21:30:29.735Z,18.10
2018-09-05T21:32:58.201Z,18.00
2018-09-05T21:35:26.683Z,17.80
2018-09-05T21:37:55.161Z,17.80
2018-09-05T21:40:23.689Z,17.70
2018-09-05T21:42:52.336Z,17.80
2018-09-05T21:45:20.877Z,17.70
2018-09-05T21:47:49.365Z,17.70
2018-09-05T21:50:17.857Z,17.70
2018-09-05T21:52:46.974Z,17.60
2018-09-05T21:55:15.663Z,17.50
2018-09-05T21:57:44.289Z,17.50
2018-09-05T22:00:12.899Z,17.50
2018-09-05T22:02:41.452Z,17.40
2018-09-05T22:05:09.970Z,17.40
2018-09-05T22:07:38.450Z,17.30
2018-09-05T22:10:06.953Z,17.20
2018-09-05T22:12:35.864Z,17.20
2018-09-05T22:15:04.893Z,17.10
2018-09-05T22:17:33.395Z,17.00
2018-09-05T22:20:01.870Z,17.10
2018-09-05T22:22:30.330Z,17.00
2018-09-05T22:24:58.919Z,16.90
2018-09-05T22:27:27.575Z,16.90
2018-09-05T22:29:56.086Z,16.90
2018-09-05T22:32:24.859Z,16.90
2018-09-05T22:34:53.514Z,16.80
2018-09-05T22:37:23.351Z,16.80
2018-09-05T22:39:52.257Z,16.70
2018-09-05T22:42:20.744Z,16.70
2018-09-05T22:45:00.566Z,16.60
2018-09-05T22:48:39.224Z,16.70
2018-09-05T22:52:12.407Z,16.60
2018-09-05T22:57:01.624Z,16.60
2018-09-05T22:59:42.472Z,16.60
2018-09-05T23:03:01.243Z,16.50
2018-09-05T23:08:51.925Z,16.50
2018-09-05T23:11:31.500Z,16.50
2018-09-05T23:14:11.986Z,16.40
2018-09-05T23:19:00.656Z,16.40
2018-09-05T23:21:29.162Z,16.30
2018-09-05T23:24:01.952Z,16.20
2018-09-05T23:26:30.576Z,16.20
2018-09-05T23:28:59.101Z,16.20
2018-09-05T23:31:27.740Z,16.20
2018-09-05T23:33:56.559Z,16.10
2018-09-05T23:36:25.328Z,16.20
2018-09-05T23:38:53.939Z,16.20
2018-09-05T23:41:22.402Z,16.10
2018-09-05T23:43:50.888Z,16.10
2018-09-05T23:46:19.463Z,16.10
2018-09-05T23:48:48.044Z,16.00
2018-09-05T23:51:16.633Z,16.00
2018-09-05T23:53:45.202Z,16.00
2018-09-05T23:56:13.905Z,16.00
2018-09-05T23:58:42.368Z,16.00
